createdAt,value
2022-09-02T00:01:20.053Z,22.43
2022-09-02T00:06:17.732Z,22.10
2022-09-02T00:11:15.320Z,22.33
2022-09-02T00:16:11.029Z,22.18
2022-09-02T00:21:07.426Z,21.99
2022-09-02T00:26:05.061Z,22.02
2022-09-02T00:30:58.893Z,22.07
2022-09-02T00:35:52.231Z,22.26
2022-09-02T00:40:48.136Z,22.08
2022-09-02T00:45:43.284Z,21.83
2022-09-02T00:50:39.671Z,21.86
2022-09-02T00:55:37.836Z,22.08
2022-09-02T01:00:34.957Z,22.14
2022-09-02T01:05:33.358Z,22.19
2022-09-02T01:10:29.510Z,22.15
2022-09-02T01:15:22.772Z,22.15
2022-09-02T01:20:19.246Z,22.28
2022-09-02T01:25:18.228Z,21.73
2022-09-02T01:30:14.465Z,22.03
2022-09-02T01:35:08.870Z,22.21
2022-09-02T01:40:02.606Z,22.23
2022-09-02T01:44:57.503Z,21.89
2022-09-02T01:49:51.804Z,21.93
2022-09-02T01:54:46.642Z,22.18
2022-09-02T01:59:40.377Z,22.12
2022-09-02T02:04:35.221Z,21.58
2022-09-02T02:09:31.707Z,22.04
2022-09-02T02:14:25.562Z,21.96
2022-09-02T02:19:19.758Z,21.32
2022-09-02T02:24:16.259Z,21.47
2022-09-02T02:29:10.000Z,21.24
2022-09-02T02:34:05.009Z,21.35
2022-09-02T02:39:01.625Z,21.49
2022-09-02T02:44:00.332Z,21.61
2022-09-02T02:48:56.549Z,21.53
2022-09-02T02:53:49.945Z,20.86
2022-09-02T02:58:45.296Z,21.42
2022-09-02T03:03:40.222Z,21.39
2022-09-02T03:08:35.388Z,20.99
2022-09-02T03:13:29.449Z,20.77
2022-09-02T03:18:26.907Z,21.11
2022-09-02T03:23:21.804Z,21.26
2022-09-02T03:28:20.283Z,20.99
2022-09-02T03:33:14.299Z,20.97
2022-09-02T03:38:09.252Z,20.44
2022-09-02T03:43:05.210Z,20.00
2022-09-02T03:48:01.514Z,20.70
2022-09-02T03:53:00.771Z,19.99
2022-09-02T03:57:55.099Z,20.73
2022-09-02T04:02:55.449Z,20.09
2022-09-02T04:07:51.516Z,19.55
2022-09-02T04:12:45.315Z,20.66
2022-09-02T04:17:41.613Z,19.84
2022-09-02T04:22:40.688Z,20.07
2022-09-02T04:27:34.329Z,20.52
2022-09-02T04:32:29.563Z,21.06
2022-09-02T04:37:24.754Z,20.24
2022-09-02T04:42:22.449Z,21.13
2022-09-02T04:47:16.003Z,20.94
2022-09-02T04:52:10.792Z,20.84
2022-09-02T04:57:06.322Z,20.60
2022-09-02T05:02:02.331Z,21.28
2022-09-02T05:12:41.272Z,20.21
2022-09-02T05:18:04.559Z,21.07
2022-09-02T05:22:59.365Z,20.35
2022-09-02T05:27:52.713Z,20.48
2022-09-02T05:32:50.013Z,21.46
2022-09-02T05:37:49.342Z,21.34
2022-09-02T05:42:43.851Z,21.66
2022-09-02T05:47:39.997Z,21.94
2022-09-02T05:52:37.037Z,22.10
2022-09-02T05:57:46.405Z,22.24
2022-09-02T06:02:42.800Z,21.25
2022-09-02T06:07:57.932Z,22.45
2022-09-02T06:12:51.931Z,22.49
2022-09-02T06:17:49.414Z,21.12
2022-09-02T06:22:43.354Z,21.96
2022-09-02T06:27:42.144Z,22.60
2022-09-02T06:32:36.702Z,22.12
2022-09-02T06:37:36.605Z,22.73
2022-09-02T06:42:30.365Z,22.66
2022-09-02T06:47:41.019Z,22.54
2022-09-02T06:52:36.178Z,22.94
2022-09-02T06:57:34.125Z,22.85
2022-09-02T07:02:32.362Z,22.88
2022-09-02T07:07:28.921Z,23.43
2022-09-02T07:12:33.069Z,23.64
2022-09-02T07:17:33.625Z,23.42
2022-09-02T07:22:31.828Z,23.86
2022-09-02T07:27:28.318Z,23.94
2022-09-02T07:32:23.503Z,24.03
2022-09-02T07:37:16.787Z,24.24
2022-09-02T07:42:11.580Z,24.21
2022-09-02T07:47:06.520Z,24.15
2022-09-02T07:52:02.591Z,24.25
2022-09-02T07:56:57.510Z,24.39
2022-09-02T08:01:54.769Z,24.59
2022-09-02T08:06:50.712Z,24.66
2022-09-02T08:11:47.871Z,24.79
2022-09-02T08:16:44.939Z,24.86
2022-09-02T08:21:41.812Z,25.24
2022-09-02T08:26:37.299Z,25.42
2022-09-02T08:31:32.187Z,25.66
2022-09-02T08:36:25.770Z,25.78
2022-09-02T08:41:23.986Z,26.42
2022-09-02T08:46:19.317Z,26.00
2022-09-02T08:51:19.497Z,26.58
2022-09-02T08:56:17.128Z,26.69
2022-09-02T09:01:20.055Z,27.02
2022-09-02T09:06:19.854Z,27.00
2022-09-02T09:11:21.156Z,27.02
2022-09-02T09:16:26.300Z,26.84
2022-09-02T09:26:23.031Z,27.28
2022-09-02T09:31:19.943Z,27.53
2022-09-02T09:36:14.298Z,27.71
2022-09-02T09:41:29.153Z,28.27
2022-09-02T09:46:28.898Z,28.27
2022-09-02T09:51:22.495Z,28.46
2022-09-02T09:56:30.618Z,28.63
2022-09-02T10:01:31.159Z,28.59
2022-09-02T10:06:37.148Z,28.66
2022-09-02T10:11:32.436Z,28.78
2022-09-02T10:16:45.143Z,28.98
2022-09-02T10:21:58.316Z,28.74
2022-09-02T10:26:56.121Z,28.84
2022-09-02T10:32:00.873Z,29.02
2022-09-02T10:37:09.880Z,28.95
2022-09-02T10:42:10.745Z,29.18
2022-09-02T10:47:11.688Z,29.27
2022-09-02T10:52:13.724Z,29.48
2022-09-02T10:57:13.027Z,29.73
2022-09-02T11:02:15.346Z,29.88
2022-09-02T11:07:14.415Z,29.74
2022-09-02T11:12:13.490Z,29.63
2022-09-02T11:17:15.837Z,29.51
2022-09-02T11:22:27.267Z,30.02
2022-09-02T11:27:41.683Z,30.05
2022-09-02T11:32:47.315Z,30.09
2022-09-02T11:37:45.242Z,30.19
2022-09-02T11:42:54.538Z,30.30
2022-09-02T11:48:14.252Z,30.10
2022-09-02T11:53:21.670Z,30.39
2022-09-02T11:58:32.910Z,30.63
2022-09-02T12:03:58.447Z,30.29
2022-09-02T12:09:07.903Z,30.91
2022-09-02T12:14:04.493Z,30.83
2022-09-02T12:19:27.745Z,30.28
2022-09-02T12:24:22.423Z,29.69
2022-09-02T12:29:35.260Z,29.25
2022-09-02T12:35:07.961Z,28.72
2022-09-02T12:40:13.983Z,28.26
2022-09-02T12:45:13.264Z,27.85
2022-09-02T12:50:12.954Z,27.64
2022-09-02T12:55:12.288Z,27.31
2022-09-02T13:00:05.639Z,26.96
2022-09-02T13:05:19.731Z,26.19
2022-09-02T13:10:46.245Z,25.20
2022-09-02T13:16:02.977Z,24.52
2022-09-02T13:21:19.737Z,23.44
2022-09-02T13:26:53.521Z,23.31
2022-09-02T13:32:01.624Z,22.78
2022-09-02T13:36:56.194Z,22.91
2022-09-02T13:41:49.545Z,22.78
2022-09-02T13:46:48.752Z,22.64
2022-09-02T13:51:45.476Z,22.21
2022-09-02T13:56:40.360Z,22.56
2022-09-02T14:01:40.614Z,22.13
2022-09-02T14:06:38.684Z,22.35
2022-09-02T14:11:48.192Z,22.19
2022-09-02T14:16:45.519Z,22.09
2022-09-02T14:21:46.057Z,21.35
2022-09-02T14:26:44.337Z,22.04
2022-09-02T14:31:38.065Z,21.92
2022-09-02T14:36:38.346Z,21.98
2022-09-02T14:41:39.241Z,21.93
2022-09-02T14:46:40.606Z,21.88
2022-09-02T14:51:42.587Z,21.77
2022-09-02T14:56:52.351Z,21.88
2022-09-02T15:01:51.931Z,20.65
2022-09-02T15:06:48.014Z,21.83
2022-09-02T15:12:27.508Z,20.62
2022-09-02T15:17:25.189Z,20.33
2022-09-02T15:22:36.775Z,21.69
2022-09-02T15:27:34.743Z,20.29
2022-09-02T15:32:43.223Z,20.47
2022-09-02T15:38:26.352Z,20.28
2022-09-02T15:43:31.269Z,20.83
2022-09-02T15:48:26.411Z,20.54
2022-09-02T15:53:20.014Z,21.53
2022-09-02T15:58:13.832Z,20.88
2022-09-02T16:03:12.093Z,21.36
2022-09-02T16:08:05.685Z,20.99
2022-09-02T16:13:00.838Z,21.26
2022-09-02T16:17:54.389Z,21.34
2022-09-02T16:23:01.369Z,21.02
2022-09-02T16:27:57.299Z,21.13
2022-09-02T16:32:51.818Z,20.58
2022-09-02T16:37:45.431Z,20.89
2022-09-02T16:42:40.295Z,21.01
2022-09-02T16:47:33.972Z,21.12
2022-09-02T16:52:27.181Z,21.04
2022-09-02T16:57:23.408Z,20.47
2022-09-02T17:02:25.575Z,21.14
2022-09-02T17:07:21.572Z,21.14
2022-09-02T17:12:21.376Z,21.05
2022-09-02T17:17:19.694Z,21.20
2022-09-02T17:22:14.794Z,21.16
2022-09-02T17:27:08.354Z,20.90
2022-09-02T17:32:04.181Z,20.74
2022-09-02T17:37:04.378Z,20.39
2022-09-02T17:41:59.871Z,21.33
2022-09-02T17:47:01.129Z,21.01
2022-09-02T17:51:55.430Z,21.44
2022-09-02T17:57:10.133Z,20.01
2022-09-02T18:02:44.106Z,21.51
2022-09-02T18:07:49.894Z,21.40
2022-09-02T18:12:45.555Z,20.96
2022-09-02T18:17:52.259Z,21.20
2022-09-02T18:23:13.492Z,20.80
2022-09-02T18:28:44.970Z,20.74
2022-09-02T18:34:02.618Z,21.03
2022-09-02T18:39:21.319Z,21.32
2022-09-02T18:44:39.305Z,20.15
2022-09-02T18:49:38.388Z,20.17
2022-09-02T18:54:47.302Z,20.50
2022-09-02T19:00:20.472Z,20.20
2022-09-02T19:05:27.270Z,21.14
2022-09-02T19:10:28.054Z,21.49
2022-09-02T19:15:25.288Z,21.53
2022-09-02T19:20:19.184Z,20.37
2022-09-02T19:25:22.121Z,21.05
2022-09-02T19:30:29.231Z,20.31
2022-09-02T19:35:27.922Z,20.27
2022-09-02T19:40:48.753Z,20.24
2022-09-02T19:45:42.322Z,20.03
2022-09-02T19:50:45.054Z,21.31
2022-09-02T19:55:39.210Z,21.16
2022-09-02T20:00:35.346Z,20.88
2022-09-02T20:05:31.382Z,20.78
2022-09-02T20:10:28.000Z,20.82
2022-09-02T20:15:26.223Z,20.71
2022-09-02T20:20:24.011Z,20.46
2022-09-02T20:25:17.702Z,20.55
2022-09-02T20:30:19.287Z,20.31
2022-09-02T20:35:38.720Z,20.44
2022-09-02T20:40:59.231Z,20.06
2022-09-02T20:45:58.746Z,19.66
2022-09-02T20:51:01.678Z,20.16
2022-09-02T20:56:00.656Z,20.27
2022-09-02T21:01:06.774Z,19.68
2022-09-02T21:06:03.112Z,19.08
2022-09-02T21:11:08.765Z,19.53
2022-09-02T21:16:11.383Z,19.80
2022-09-02T21:21:11.740Z,19.61
2022-09-02T21:26:11.683Z,19.62
2022-09-02T21:31:15.488Z,19.59
2022-09-02T21:36:13.421Z,19.58
2022-09-02T21:41:27.320Z,18.24
2022-09-02T21:46:31.277Z,19.42
2022-09-02T21:51:33.862Z,19.25
2022-09-02T21:56:44.410Z,19.29
2022-09-02T22:01:51.145Z,19.18
2022-09-02T22:06:48.830Z,17.89
2022-09-02T22:11:50.577Z,18.87
2022-09-02T22:16:59.138Z,18.35
2022-09-02T22:22:02.511Z,18.60
2022-09-02T22:27:02.517Z,18.93
2022-09-02T22:31:59.857Z,18.93
2022-09-02T22:36:58.478Z,18.63
2022-09-02T22:41:58.926Z,18.78
2022-09-02T22:47:13.548Z,18.78
2022-09-02T22:52:34.578Z,18.85
2022-09-02T22:57:39.425Z,18.36
2022-09-02T23:02:39.352Z,18.57
2022-09-02T23:07:32.992Z,17.99
2022-09-02T23:12:33.918Z,18.70
2022-09-02T23:17:36.580Z,18.65
2022-09-02T23:22:45.194Z,18.32
2022-09-02T23:27:45.226Z,18.46
2022-09-02T23:33:02.323Z,18.08
2022-09-02T23:38:21.761Z,17.80
2022-09-02T23:43:18.496Z,17.96
2022-09-02T23:48:31.738Z,18.02
2022-09-02T23:53:32.701Z,17.85
2022-09-02T23:58:41.327Z,17.97
